WFO Denver/Boulder


Hot-Air Balloon Forecast for Colorado
National Weather Service Denver/Boulder, Colorado
1445 MST Friday, March 6, 2015

COLORADO SYNOPSIS VALID 06/1800Z-07/0600Z UPPER RIDGE ALONG THE WEST 
COAST WITH SURFACE HIGH PRESSURE OVER THE CENTRAL ROCKIES. MODERATE 
NORTHWEST FLOW ALOFT DECREASING. AIRMASS STABLE WITH DECREASING HIGH 
LEVEL MOISTURE OVER NORTHERN COLORADO. !--NOT SENT--!

* * * * * Northeast Colorado * * * * *

METAR KFNL 062135Z AUTO 00000KT 10SM CLR 08/M06 A3025 RMK AO1
METAR KFNL 062115Z AUTO 20003KT 10SM CLR 08/M07 A3026 RMK AO1
METAR KFNL 062055Z AUTO 20003KT 10SM CLR 08/M07 A3026 RMK AO1 57017

METAR KGXY 062135Z AUTO 16003KT 10SM CLR 14/M09 A3021 RMK AO1
METAR KGXY 062115Z AUTO 12006KT 10SM CLR 14/M09 A3021 RMK AO1
METAR KGXY 062055Z AUTO 21005KT 10SM CLR 14/M09 A3022 RMK AO1 57024

METAR KLMO 062134Z AUTO 35004KT 10SM CLR 13/M08 A3025 RMK AO2
       T01271081
METAR KLMO 062114Z AUTO 35005KT 10SM CLR 13/M09 A3025 RMK AO2
       T01261089
METAR KLMO 062054Z AUTO 34005KT 10SM CLR 13/M09 A3026 RMK AO2
       T01251087

METAR KBDU 062137Z AUTO 33004KT 10SM CLR 09/M08 A3022 RMK AO2
METAR KBDU 062117Z AUTO 34004KT 10SM CLR 09/M07 A3023 RMK AO2
METAR KBDU 062057Z AUTO 34005KT 10SM CLR 08/M07 A3024 RMK AO2

METAR KEIK 062135Z AUTO 07004KT 10SM CLR 11/M10 A3023 RMK AO2
       T01101103
METAR KEIK 062115Z AUTO 35004KT 10SM CLR 09/M05 A3023 RMK AO2
       T00921049
METAR KEIK 062055Z AUTO 36007KT 10SM CLR 09/M05 A3023 RMK AO2
       T00941053

KBJC 061720Z 0618/0718 VRB05KT P6SM FEW120
     FM062100 15005KT P6SM SCT200
     FM070400 29006KT P6SM SKC
     FM071500 21007KT P6SM FEW180
SPECI KBJC 062125Z 31008KT 30SM SKC 09/M11 A3024
METAR KBJC 062045Z 09006KT 30SM SKC 10/M11 A3024
METAR KBJC 061945Z 00000KT 30SM FEW200 10/M11 A3026

KDEN 062059Z 0621/0724 14006KT P6SM FEW200
     FM070200 19007KT P6SM SKC
     FM071600 15010KT P6SM FEW200
METAR KDEN 062053Z 16006KT 10SM FEW200 09/M05 A3023 RMK AO2 SLP243
       T00891050 56017
METAR KDEN 061953Z 13007KT 10SM FEW200 08/M06 A3025 RMK AO2 SLP254
       T00781056
METAR KDEN 061853Z 16007KT 10SM FEW140 FEW250 07/M07 A3027 RMK AO2
       SLP257 T00721072

METAR KFTG 062050Z 13007KT 50SM FEW200 10/M09 A3024
METAR KFTG 061955Z 14006KT 50SM FEW200 09/M08 A3027
METAR KFTG 061850Z 16004KT 50SM FEW200 09/M09 A3029

KBKF 0617/0723 VRB06KT 9999 FEW100 SCT200 QNH3025INS
     BECMG 0702/0703 18009KT 9999 FEW200 QNH3015INS TX10/0623Z
     TNM05/0715Z
METAR KBKF 062058Z 13009KT 10SM FEW220 07/M04 A3024 RMK AO2A SLP244
       T00731045
METAR KBKF 061958Z 13009KT 10SM FEW110 FEW220 07/M06 A3025 RMK AO2A
       SLP248 T00731060
METAR KBKF 061858Z 11007KT 10SM FEW110 FEW220 08/M08 A3028 RMK AO2A
       SLP258 T00791085

KAPA 061720Z 0618/0718 15006KT P6SM FEW200
     FM062000 21007KT P6SM SCT200
     FM070200 17007KT P6SM SKC
     FM071600 15010KT P6SM FEW220
METAR KAPA 062053Z 15004KT 10SM CLR 08/M11 A3023 RMK AO2 SLP247
       T00831106 58018
METAR KAPA 061953Z 17008KT 10SM FEW140 08/M12 A3025 RMK AO2 SLP257
       T00781117
METAR KAPA 061853Z 14006KT 10SM FEW140 FEW200 08/M15 A3028 RMK AO2
       SLP267 ACSL DSNT NW T00831150

METAR KMNH 062135Z AUTO 14007KT 10SM CLR 06/M07 A3025 RMK AO2
METAR KMNH 062116Z AUTO 14008KT 10SM CLR 06/M08 A3025 RMK AO2
METAR KMNH 062056Z AUTO 14008KT 10SM CLR 06/M08 A3025 RMK AO2

METAR KFMM 062135Z AUTO 27007KT 10SM CLR 14/M12 A3022 RMK AO2
       T01391116
METAR KFMM 062115Z AUTO 27005G14KT 10SM CLR 14/M11 A3023 RMK AO2
       T01381109
METAR KFMM 062055Z AUTO 27005G08KT 10SM CLR 14/M11 A3024 RMK AO2
       T01351109

METAR KSTK 062130Z AUTO 32011G14KT 10SM CLR 15/M09 A3020 RMK AO2
METAR KSTK 062110Z AUTO 34007KT 292V352 10SM CLR 15/M08 A3019 RMK
       AO2
METAR KSTK 062050Z AUTO 33014G20KT 292V042 10SM CLR 15/M08 A3019 RMK
       AO2

METAR KAKO 062053Z AUTO 26008KT 10SM CLR 12/M11 A3023 RMK AO2 SLP241
       T01221106 58019
METAR KAKO 061953Z AUTO 30006G18KT 10SM CLR 12/M09 A3026 RMK AO2 SLP251
       T01171094
METAR KAKO 061853Z AUTO 31013G19KT 10SM CLR 11/M10 A3028 RMK AO2 SLP258
       T01061100

METAR KLIC 062055Z AUTO 02004KT 10SM CLR 06/M04 A3026 RMK AO2 SLP281
       T00611039 58017
METAR KLIC 061955Z AUTO 02003KT 10SM CLR 06/M05 A3029 RMK AO2 SLP291
       T00561050
METAR KLIC 061855Z AUTO 36005KT 10SM CLR 04/M06 A3031 RMK AO2 SLP302
       T00391061

METAR KHEQ 062135Z AUTO 29013G16KT 10SM CLR 16/M11 A3019 RMK AO2
METAR KHEQ 062115Z AUTO 29008G16KT 10SM CLR 17/M10 A3019 RMK AO2
METAR KHEQ 062055Z AUTO 27014G17KT 10SM CLR 16/M10 A3019 RMK AO2

METAR K2V5 062135Z AUTO 28014G17KT 10SM CLR 17/M10 A3020 RMK AO2
       T01671098
METAR K2V5 062115Z AUTO 29011G18KT 10SM CLR 16/M10 A3020 RMK AO2
       T01641101
METAR K2V5 062055Z AUTO 27014G17KT 10SM CLR 17/M10 A3021 RMK AO2
       T01651097

METAR KITR 062053Z AUTO 25013KT 10SM CLR 13/M09 A3024 RMK AO2 SLP241
       T01331094 58020
METAR KITR 061953Z AUTO 25010G19KT 10SM CLR 13/M08 A3027 RMK AO2 SLP252
       T01281078
METAR KITR 061853Z AUTO 25012KT 10SM CLR 13/M09 A3029 RMK AO2 SLP260
       T01281089

Sunrise/Sunset for 03/06/2015
Fort Collins - 06:26:30 MST / 17:55:54 MST
Denver       - 06:25:34 MST / 17:56:00 MST
Sterling     - 06:19:09 MST / 17:48:25 MST

Denver/Boulder (KFTG) 03/06/15 21:26 UTC
Radar VAD winds      Height      Dir/Spd(kt)
                   9000 FT MSL...299/000
                   8400 FT MSL...134/001
                   6600 FT MSL...148/008

Denver/Boulder Aviation Discussion
Issued at 2136 UTC Friday, March  6, 2015

.AVIATION...(FOR THE TAFS THROUGH 00Z SATURDAY LATE AFTERNOON)
ISSUED AT 203 PM MST FRI MAR 6 2015
VFR CONDITIONS WILL PREVAIL THROUGH TOMORROW EVENING. SKIES WILL
CLEAR OVERNIGHT THEN INCREASED UPPER LEVEL CLOUDS WILL MOVE IN BY
TOMORROW EARLY AFTERNOON. WINDS WILL BE DRAINAGE UNTIL IS SWITCHES
TO A MORE SE DIRECTION BY TOMORROW AFTERNOON THEN SW DRAINAGE
WINDS BY EARLY EVENING.


* * * * * Southeast Colorado * * * * *

METAR K4BM 062136Z AUTO 27005G15KT 10SM CLR 01/M17 A3037 RMK AO2
METAR K4BM 062116Z AUTO 28007G14KT 10SM CLR 00/M17 A3037 RMK AO2
METAR K4BM 062056Z AUTO 27004G14KT 10SM CLR 00/M17 A3037 RMK AO2

METAR KAFF 062058Z AUTO 15007KT 10SM CLR 08/M12 A3024 RMK AO2 SLP270
       T00791123 57017
METAR KAFF 061958Z AUTO 19006KT 10SM CLR 08/M15 A3027 RMK AO2 SLP274
       T00841146
METAR KAFF 061858Z AUTO 15008KT 10SM CLR 07/M13 A3029 RMK AO2 SLP287
       T00741129

KCOS 061730Z 0618/0718 13006KT P6SM SCT200
     FM070300 36005KT P6SM SCT200
     FM071600 16008KT P6SM SCT200
METAR KCOS 062054Z 16005KT 10SM CLR 09/M09 A3026 RMK AO2 SLP266
       T00941094 58018
METAR KCOS 061954Z 19004KT 10SM CLR 09/M09 A3028 RMK AO2 SLP277
       T00941089
METAR KCOS 061854Z 16004KT 10SM CLR 08/M10 A3030 RMK AO2 SLP287
       T00831100


METAR KFLY 062132Z AUTO 00000KT 10SM CLR 09/M09 A3027 RMK AO2
       T00911087
METAR KFLY 062112Z AUTO 00000KT 10SM CLR 09/M09 A3027 RMK AO2
       T00911089
METAR KFLY 062052Z AUTO 00000KT 10SM CLR 10/M10 A3028 RMK AO2
       T00951097

KFCS 0621/0803 14009KT 9999 FEW200 QNH3023INS
     BECMG 0701/0702 33009KT 9999 FEW250 QNH3031INS
     BECMG 0716/0717 14009KT 9999 SKC QNH3031INS TX11/0723Z
     TNM06/0714Z
METAR KFCS 062058Z AUTO 09007KT 10SM CLR 09/M07 A3024 RMK AO2 SLP279
       T00911067 57020
METAR KFCS 061958Z AUTO 14005KT 10SM CLR 09/M10 A3026 RMK AO2 SLP286
       T00871100
METAR KFCS 061858Z AUTO 14005KT 10SM CLR 08/M10 A3029 RMK AO2 SLP302
       T00841105

KPUB 061730Z 0618/0718 11005KT P6SM FEW250
     FM070200 VRB03KT P6SM FEW250
     FM071700 13004KT P6SM FEW250
METAR KPUB 062053Z 00000KT 10SM CLR 13/M08 A3023 RMK AO2 SLP238
       T01281083 58025
METAR KPUB 061953Z 12003KT 10SM CLR 12/M07 A3027 RMK AO2 SLP254
       T01171067
METAR KPUB 061853Z 00000KT 10SM CLR 10/M06 A3030 RMK AO2 SLP266
       T01001061

METAR KVTP 062135Z AUTO 21007G20KT 150V270 10SM CLR 05/M15 A3035 RMK AO2
       P0001
METAR KVTP 062115Z AUTO 20008G15KT 150V240 10SM CLR 05/M15 A3035 RMK AO2
       P0001
METAR KVTP 062055Z AUTO 20008G17KT 100V250 10SM CLR 04/M13 A3035 RMK AO2
       P0002

METAR KTAD 062054Z AUTO 11005KT 10SM CLR 13/M06 A3025 RMK AO2 SLP230
       T01281061 58021
METAR KTAD 061954Z AUTO 08004KT 10SM CLR 12/M06 A3028 RMK AO2 SLP239
       T01171061
METAR KTAD 061854Z AUTO 06005KT 10SM CLR 11/M05 A3030 RMK AO2 SLP252
       T01061050

METAR KLHX 062053Z AUTO VRB03KT 10SM CLR 14/M06 A3024 RMK AO2 SLPNO
       6//// T01441061
SPECI KLHX 062000Z 16005KT 10SM 13/M06 A3027 RMK AO2 T01331061
METAR KLHX 061953Z AUTO 00000KT 13/M07 A3028 RMK AO2 SLPNO T01281067

METAR KLAA 062053Z AUTO 20006G15KT 10SM CLR 16/M07 A3022 RMK AO2 SLP236
       T01561072 58030
METAR KLAA 061953Z AUTO 21004KT 10SM CLR 14/M04 A3026 RMK AO2 SLP251
       T01391039
METAR KLAA 061853Z AUTO 24007KT 10SM CLR 12/M03 A3030 RMK AO2 SLP263
       T01221033

METAR KSPD 062056Z AUTO 18012KT 14/M08 A3025 RMK AO1 SLP233 T01391083
       58024
METAR KSPD 061956Z AUTO 21009KT 13/M09 A3028 RMK AO1 SLP243
       T01331094
METAR KSPD 061856Z AUTO VRB05KT 12/M09 A3031 RMK AO1 SLP257
       T01221089

Sunrise/Sunset for 03/06/2015
Burlington - 06:14:34 MST / 17:45:30 MST
Pueblo     - 06:23:20 MST / 17:55:32 MST
Lamar      - 06:15:13 MST / 17:47:38 MST

Pueblo (KPUX) 03/06/15 21:30 UTC
Radar VAD winds      Height      Dir/Spd(kt)
                   8200 FT MSL...212/003
                   8000 FT MSL...202/003
                   7000 FT MSL...151/003
                   6500 FT MSL...111/005
                   6300 FT MSL...170/005
                   6000 FT MSL...150/005
                   5700 FT MSL...141/005

Pueblo Aviation Discussion
Issued at 2004 UTC Friday, March  6, 2015

.AVIATION...(FOR THE 18Z TAFS THROUGH 18Z SATURDAY AFTERNOON)
ISSUED AT 1033 AM MST FRI MAR 6 2015
DRY NORTHWEST FLOW OVER FLIGHT AREA NEXT 24 HOURS. WEAK UPPER
LEVEL DISTURBANCES MAY BRING SOME PATCHES OF HIGH...THIN CLOUDS
SOUTH ACROSS THE AREA AT TIMES...BUT NO LOW LEVEL MOISTURE IS
AVAILABLE FOR CIGS OR PRECIPITATION. VFR ALL AREAS...INCLUDING
KCOS...KPUB AND KALS TAF SITES.


* * * * * Northwest Colorado * * * * *

METAR KCAG 062053Z AUTO 00000KT 10SM CLR 07/M08 A3038 RMK AO2 SLP322
       T00671078
METAR KCAG 061953Z AUTO 00000KT 10SM 06/M07 A3041 RMK AO2 SLP332
       T00561067 $
METAR KCAG 061853Z AUTO 09005KT 10SM CLR 04/M08 A3043 RMK AO2 SLP343
       T00391083

METAR KHDN 062135Z AUTO 00000KT 10SM CLR 05/M11 A3037 RMK AO1
METAR KHDN 062115Z AUTO 00000KT 10SM CLR 04/M09 A3038 RMK AO1
METAR KHDN 062055Z AUTO 00000KT 10SM CLR 04/M09 A3038 RMK AO1 57020


METAR K33V 062134Z AUTO 19008KT 10SM CLR 02/M10 A3034 RMK AO2
METAR K33V 062115Z AUTO 19012G16KT 10SM CLR 02/M10 A3034 RMK AO2
METAR K33V 062055Z AUTO 19011G17KT 10SM CLR 01/M11 A3034 RMK AO2

METAR KEEO 062053Z AUTO 16006KT 10SM CLR 08/M08 A3037 RMK AO2 SLP284
       T00831078 58019
METAR KEEO 061953Z AUTO 16005KT 10SM CLR 07/M08 A3039 RMK AO2 SLP297
       T00721083
METAR KEEO 061853Z AUTO 00000KT 10SM CLR 07/M09 A3042 RMK AO2 SLP303
       T00671089

METAR K20V 062135Z AUTO 20003KT 10SM CLR 02/M08 A3039 RMK AO2
METAR K20V 062115Z AUTO 00000KT 10SM CLR 02/M08 A3039 RMK AO2
METAR K20V 062055Z AUTO 00000KT 10SM CLR 01/M09 A3040 RMK AO2


KGJT 061729Z 0618/0718 12008KT P6SM SKC
     FM062000 30004KT P6SM FEW250
     FM070200 05005KT P6SM SCT250
     FM070600 11007KT P6SM SKC
METAR KGJT 062053Z 09003KT 10SM CLR 11/M09 A3037 RMK AO2 SLP283
       T01061094 58026
METAR KGJT 061953Z 00000KT 10SM CLR 08/M08 A3040 RMK AO2 SLP300
       T00831083
METAR KGJT 061853Z VRB05KT 10SM CLR 07/M09 A3044 RMK AO2 SLP312
       T00721089

KRIL 061729Z 0618/0718 07004KT P6SM SKC
     FM062000 27006KT P6SM FEW250
     FM070200 16003KT P6SM SCT250
     FM071100 VRB02KT P6SM FEW250
METAR KRIL 062053Z AUTO 00000KT 10SM CLR 09/M09 A3037 RMK AO2 SLP291
       T00941094 58026
METAR KRIL 061953Z AUTO VRB04KT 10SM CLR 08/M08 A3040 RMK AO2 SLP303
       T00781083
METAR KRIL 061853Z AUTO 00000KT 10SM CLR 05/M09 A3044 RMK AO2 SLP321
       T00501089

METAR K5SM 062135Z AUTO 25004KT 10SM CLR 00/M10 RMK AO2
METAR K5SM 062115Z AUTO 25004KT 10SM CLR 00/M09 RMK AO2
METAR K5SM 062055Z AUTO 00000KT 10SM CLR 00/M10 RMK AO2

KEGE 061729Z 0618/0718 VRB03KT P6SM SCT250
     FM062000 23009KT P6SM SCT120 SCT250
     FM070200 09005KT P6SM SCT250
     FM070600 VRB02KT P6SM FEW010 SCT250
METAR KEGE 062050Z 00000KT 10SM SKC 06/M09 A3035
METAR KEGE 061950Z 20004KT 10SM SKC 04/M09 A3043

KASE 061729Z 0618/0718 35005KT P6SM FEW250
     FM070200 21005KT P6SM SCT250
     FM071400 VRB02KT P6SM FEW250
METAR KASE 062053Z 34007KT 10SM CLR 06/M12 A3035 RMK AO2 SLP280
       T00561122 58020
METAR KASE 061953Z 36004KT 10SM CLR 05/M14 A3038 RMK AO2 SLP290
       T00501144
METAR KASE 061853Z 33005KT 10SM CLR 03/M12 A3041 RMK AO2 SLP299
       T00281117

METAR KCCU 062135Z AUTO 26011G18KT 10SM CLR 00/M17 A3039 RMK AO2
METAR KCCU 062115Z AUTO 25012G24KT 10SM CLR 00/M16 A3039 RMK AO2
METAR KCCU 062055Z AUTO 26013G22KT 10SM CLR 00/M17 A3040 RMK AO2

METAR KLXV 062053Z AUTO 30015G22KT 10SM CLR 01/M15 A3033 RMK AO2 SLP246
       T00111150 58015
METAR KLXV 061953Z AUTO 30010KT 10SM CLR 02/M17 A3036 RMK AO2 SLP265
       T00171167
METAR KLXV 061853Z AUTO VRB05KT 10SM CLR 02/M18 A3039 RMK AO2 SLP289
       T00171178

Sunrise/Sunset for 03/06/2015
Rangely           - 06:41:02 MST / 18:11:03 MST
Grand Junction    - 06:39:32 MST / 18:10:47 MST
Steamboat Springs - 06:33:28 MST / 18:02:58 MST

Grand Junction (KGJX) 03/06/15 21:31 UTC
Radar VAD winds      Height      Dir/Spd(kt)
                  12000 FT MSL...341/008
                  11000 FT MSL...342/008
                  10400 FT MSL...356/009

Grand Junction Aviation Discussion
Issued at 1702 UTC Friday, March  6, 2015

.AVIATION...(FOR THE 18Z TAFS THROUGH 18Z SATURDAY AFTERNOON)
ISSUED AT 1001 AM MST FRI MAR 6 2015
WITH ONLY HIGH CLOUDINESS DRIFTING OVER EASTERN UTAH AND WESTERN
COLORADO THE NEXT 24 HOURS...VFR CONDITIONS WILL PREVAIL. AS
TEMPERATURES BEGIN TO WARM IN THE VALLEYS...MELTING OF THE NEW
SNOW PACK MAY LEAD TO SOME AREAS OF LIGHT FOG DURING THE EARLY
MORNING HOURS. HOWEVER CONFIDENCE IS TOO LOW TO PLACE IN TERMINAL
FORECAST ATTM. 


* * * * * Southwest Colorado * * * * *

METAR KAJZ 062135Z AUTO 00000KT 10SM CLR 12/M10 A3036 RMK AO2
       T01151096
METAR KAJZ 062115Z AUTO 00000KT 10SM CLR 11/M10 A3037 RMK AO2
       T01111096
METAR KAJZ 062055Z AUTO 00000KT 10SM CLR 10/M09 A3038 RMK AO2
       T01001090

KMTJ 061729Z 0618/0718 VRB02KT P6SM SKC
     FM062100 34004KT P6SM FEW250
     FM070200 14005KT P6SM SCT250
METAR KMTJ 062053Z AUTO 00000KT 10SM CLR 08/M07 A3038 RMK AO2 SLP282
       T00781072 58025
METAR KMTJ 061953Z AUTO 00000KT 10SM CLR 07/M09 A3042 RMK AO2 SLP295
       T00721089
METAR KMTJ 061853Z AUTO 00000KT 10SM CLR 05/M09 A3045 RMK AO2 SLP312
       T00501089

METAR KGUC 062135Z 00000KT 10SM CLR M03/M12 A3042 RMK AO1
METAR KGUC 062115Z 10004KT 10SM CLR M04/M12 A3043 RMK AO1
METAR KGUC 062055Z 00000KT 10SM CLR M04/M13 A3044 RMK AO1 57030

METAR K7BM 062134Z AUTO 17005KT 10SM CLR 06/M18 A3033 RMK AO2
METAR K7BM 062114Z AUTO 15005KT 10SM CLR 06/M18 A3033 RMK AO2
METAR K7BM 062054Z AUTO 12003KT 10SM CLR 06/M18 A3035 RMK AO2

METAR KAEJ 062135Z AUTO 19005KT 10SM CLR 07/M15 A3029 RMK AO2
       T00741153
METAR KAEJ 062115Z AUTO 16005KT 10SM CLR 07/M16 A3030 RMK AO2
       T00711162
METAR KAEJ 062055Z AUTO 18006KT 10SM CLR 07/M15 A3030 RMK AO2
       T00691150

METAR KANK 062135Z AUTO 22009G15KT 10SM CLR 11/M14 A3035 RMK AO1
       T01121140
METAR KANK 062115Z AUTO 22007G16KT 190V250 10SM CLR 11/M14 A3035 RMK AO1
       T01121139
METAR KANK 062055Z AUTO 23011G15KT 10SM CLR 12/M14 A3037 RMK AO1
       T01151136


METAR KAIB 062135Z AUTO 00000KT 10SM CLR 10/M09 A3038 RMK AO2
METAR KAIB 062115Z AUTO 32004KT 10SM CLR 10/M08 A3038 RMK AO2
METAR KAIB 062055Z AUTO 00000KT 10SM CLR 09/M07 A3040 RMK AO2

KTEX 061729Z 0618/0718 VRB03KT P6SM FEW250
     FM062000 27007KT P6SM FEW250
     FM070200 13005KT P6SM SCT250
METAR KTEX 062135Z AUTO 27012KT 10SM CLR 06/M19 A3037 RMK AO2
       T00581188
METAR KTEX 062115Z AUTO 27011KT 10SM CLR 06/M19 A3037 RMK AO2
       T00561188
METAR KTEX 062055Z AUTO 27012KT 10SM CLR 06/M20 A3038 RMK AO2
       T00551201

METAR K04V 062135Z AUTO 13007KT 10SM CLR 06/M09 A3034 RMK AO2
METAR K04V 062116Z AUTO 19006KT 10SM CLR 06/M10 A3034 RMK AO2
METAR K04V 062053Z AUTO 13005KT 10SM CLR 06/M10 A3035 RMK AO2

METAR KCEZ 062053Z AUTO 30004KT 10SM CLR 10/M08 A3034 RMK AO2 SLP268
       T01001078 58022
METAR KCEZ 061953Z AUTO VRB03KT 10SM CLR 09/M07 A3038 RMK AO2 SLP282
       T00941067
METAR KCEZ 061853Z AUTO 22003KT 10SM CLR 07/M08 A3041 RMK AO2 SLP296
       T00721083

KDRO 061729Z 0618/0718 07004KT P6SM SKC
     FM062100 15004KT P6SM FEW250
     FM070200 03005KT P6SM SKC
METAR KDRO 062053Z AUTO 05005KT 10SM CLR 06/M07 A3034 RMK AO2 SLP297
       T00561067 58021
METAR KDRO 061953Z AUTO 04003KT 10SM CLR 05/M08 A3037 RMK AO2 SLP308
       T00501083
METAR KDRO 061853Z AUTO 04005KT 10SM CLR 03/M07 A3040 RMK AO2 SLP322
       T00331067

METAR KPSO 062135Z AUTO 00000KT 10SM CLR 09/M16 A3034 RMK AO2
       T00891164
METAR KPSO 062115Z AUTO 00000KT 10SM CLR 09/M17 A3034 RMK AO2
       T00871168
METAR KPSO 062055Z AUTO 24003KT 10SM CLR 08/M16 A3035 RMK AO2
       T00841158

METAR KCPW 062132Z AUTO 21011G16KT 10SM CLR M01/M12 A3044 RMK AO2
METAR KCPW 062113Z AUTO 20011G16KT 10SM CLR M01/M13 A3044 RMK AO2
METAR KCPW 062050Z AUTO 22008G14KT 10SM CLR M01/M13 A3044 RMK AO2

KALS 061730Z 0618/0718 VRB05KT P6SM SKC
     FM062200 20005KT P6SM SKC
     FM070200 VRB03KT P6SM SKC
METAR KALS 062052Z AUTO 22006KT 10SM CLR 06/M10 A3034 RMK AO2 SLP287
       T00611100 58021
METAR KALS 061952Z AUTO 25004KT 10SM CLR 04/M11 A3037 RMK AO2 SLP302
       T00441106

Sunrise/Sunset for 03/06/2015
Vail    - 06:31:05 MST / 18:01:39 MST
Durango - 06:35:45 MST / 18:09:08 MST
Alamosa - 06:27:53 MST / 18:01:02 MST

Grand Junction (KGJX) 03/06/15 21:31 UTC
Radar VAD winds      Height      Dir/Spd(kt)
                  12000 FT MSL...341/008
                  11000 FT MSL...342/008
                  10400 FT MSL...356/009

Grand Junction Aviation Discussion
Issued at 1702 UTC Friday, March  6, 2015

.AVIATION...(FOR THE 18Z TAFS THROUGH 18Z SATURDAY AFTERNOON)
ISSUED AT 1001 AM MST FRI MAR 6 2015
WITH ONLY HIGH CLOUDINESS DRIFTING OVER EASTERN UTAH AND WESTERN
COLORADO THE NEXT 24 HOURS...VFR CONDITIONS WILL PREVAIL. AS
TEMPERATURES BEGIN TO WARM IN THE VALLEYS...MELTING OF THE NEW
SNOW PACK MAY LEAD TO SOME AREAS OF LIGHT FOG DURING THE EARLY
MORNING HOURS. HOWEVER CONFIDENCE IS TOO LOW TO PLACE IN TERMINAL
FORECAST ATTM. 


* * * * * Arizona * * * * *

KPGA 061720Z 0618/0718 VRB05KT P6SM SKC
METAR KPGA 062053Z AUTO VRB03KT 10SM CLR 11/M04 A3036 RMK AO2 SLP271
       T01111044 58022 TSNO
METAR KPGA 061953Z AUTO 00000KT 10SM CLR 10/M04 A3039 RMK AO2 SLP283
       T01001039 TSNO
METAR KPGA 061853Z AUTO 05004KT 10SM CLR 09/M03 A3042 RMK AO2 SLP295
       T00891028 TSNO

METAR KRQE 062053Z AUTO VRB05KT 10SM CLR 13/M11 A3032 RMK AO2 SLP240
       T01281111 58021 TSNO
METAR KRQE 061953Z AUTO 06006KT 10SM CLR 12/M11 A3035 RMK AO2 SLP251
       T01221106 TSNO

Flagstaff (KFSX) 03/06/15 21:29 UTC
Radar VAD winds      Height      Dir/Spd(kt)
                  11000 FT MSL...067/025
                  10000 FT MSL...090/018
                   9000 FT MSL...074/016
                   8500 FT MSL...102/018
                   8400 FT MSL...056/016
                   7800 FT MSL...048/015

Flagstaff Aviation Discussion
Issued at 1654 UTC Friday, March  6, 2015

.AVIATION...
FOR THE 18Z PACKAGE...VFR CONDITIONS UNDER GENERALLY CLEAR SKIES
WILL CONTINUE OVER THE NEXT 24 HOURS. EXPECT NORTHEAST WINDS
GUSTING NEAR 20 KTS 18Z-02Z...MAINLY ALONG AND SOUTH OF HIGHER
TERRAIN FEATURES LIKE THE MOGOLLON RIM. AVIATION DISCUSSION NOT
UPDATED FOR TAF AMENDMENTS.


* * * * * Utah * * * * *

KSLC 062109Z 0621/0724 32007KT P6SM FEW200
     FM070400 15006KT P6SM SKC
METAR KSLC 062053Z 30007KT 10SM FEW200 12/M04 A3041 RMK AO2 SLP296
       T01221039 58016
METAR KSLC 061953Z 35004KT 10SM FEW200 12/M05 A3043 RMK AO2 SLP301
       T01171050
METAR KSLC 061853Z 00000KT 10SM FEW200 09/M05 A3045 RMK AO2 SLP310
       T00941050

KVEL 061729Z 0618/0718 VRB03KT P6SM SCT250
     FM070200 30005KT P6SM SCT250
     FM070700 VRB02KT P6SM BKN250
METAR KVEL 062053Z AUTO 20005KT 10SM CLR 07/M07 A3040 RMK AO2 SLP308
       T00671067 58020
METAR KVEL 061953Z AUTO 20004KT 10SM CLR 05/M06 A3043 RMK AO2 SLP324
       T00501061
METAR KVEL 061853Z AUTO 00000KT 10SM CLR 04/M06 A3046 RMK AO2 SLP333
       T00391056

METAR KPUC 062053Z AUTO VRB03KT 10SM CLR 08/M06 A3039 RMK AO2 SLP315
       T00781061 58017
METAR KPUC 061953Z AUTO 00000KT 10SM CLR 07/M08 A3041 RMK AO2 SLP323
       T00671078
METAR KPUC 061853Z AUTO 13004KT 10SM CLR 06/M07 A3043 RMK AO2 SLP336
       T00561067

KCNY 061729Z 0618/0718 10005KT P6SM FEW250
     FM062000 34004KT P6SM SCT250
     FM070200 VRB03KT P6SM SCT250
     FM070600 27004KT P6SM SCT250
METAR KCNY 062053Z AUTO 00000KT 10SM CLR 11/M08 A3037 RMK AO2 SLP289
       T01111083 58022
METAR KCNY 061953Z AUTO 00000KT 10SM CLR 09/M07 A3040 RMK AO2 SLP304
       T00941067
METAR KCNY 061853Z AUTO VRB03KT 10SM CLR 09/M07 A3043 RMK AO2 SLP312
       T00891072


Salt Lake City (KMTX) 03/06/15 21:28 UTC
Radar VAD winds      Height      Dir/Spd(kt)
                  18000 FT MSL...274/012
                  16000 FT MSL...335/003
                  12000 FT MSL...284/007
                  10000 FT MSL...294/005
                   9300 FT MSL...296/001
                   9000 FT MSL...352/001
                   7600 FT MSL...296/006
                   7500 FT MSL...352/001
                   6900 FT MSL...254/002

Salt Lake City Aviation Discussion
Issued at 1639 UTC Friday, March  6, 2015

.AVIATION...OPERATIONAL WEATHER CONCERNS AT THE KSLC TERMINAL WILL 
REMAIN MINIMAL THROUGH THE TAF PERIOD. LIGHT SOUTHEAST WINDS ARE 
EXPECTED TO SWITCH TO A LIGHT NORTHWEST BETWEEN 18-20Z. 


* * * * * Wyoming * * * * *

KEVW 061723Z 0618/0718 23010KT P6SM FEW200
     FM070300 20005KT P6SM FEW200=
METAR KEVW 062053Z AUTO 25010KT 10SM CLR 06/M09 A3040 RMK AO2 SLP299
       T00561089 58011
METAR KEVW 061953Z AUTO 25009KT 10SM CLR 05/M08 A3042 RMK AO2 SLP311
       T00501078
METAR KEVW 061853Z AUTO 22010KT 10SM CLR 04/M08 A3043 RMK AO2 SLP313
       T00441083

KRKS 061723Z 0618/0718 25015G25KT P6SM FEW120
     FM070200 24011KT P6SM SCT120
METAR KRKS 062054Z AUTO 25021KT 10SM CLR 05/M07 A3032 RMK AO2 PK WND
       25027/2046 SLP278 T00501067 58017
METAR KRKS 061954Z AUTO 25019KT 10SM CLR 04/M08 A3035 RMK AO2 SLP296
       T00391078
METAR KRKS 061854Z AUTO 26019KT 10SM CLR 03/M07 A3037 RMK AO2 PK WND
       26026/1827 SLP303 T00281072

KRWL 061720Z 0618/0718 25015G22KT P6SM SKC
     FM070100 25008KT P6SM SKC
METAR KRWL 062053Z AUTO 26013G24KT 10SM CLR 03/M07 A3032 RMK AO2 SLP278
       T00331067 58004
METAR KRWL 061953Z AUTO 24011G24KT 10SM CLR 02/M07 A3034 RMK AO2 SLP284
       T00221072
METAR KRWL 061853Z AUTO 24016G22KT 10SM CLR 02/M08 A3035 RMK AO2 PK WND
       24026/1843 SLP291 T00171078

KLAR 061813Z 0618/0718 24014KT P6SM SKC
     FM070100 20005KT P6SM SKC
METAR KLAR 062053Z AUTO 27015KT 10SM CLR 04/M07 A3026 RMK AO2 SLP238
       T00441072 58008
METAR KLAR 061953Z AUTO 26017KT 10SM CLR 04/M08 A3027 RMK AO2 PK WND
       26026/1928 SLP246 T00441083
METAR KLAR 061853Z AUTO 21007KT 10SM CLR 04/M09 A3027 RMK AO2 SLP248
       T00391094

KCYS 061813Z 0618/0718 30014KT P6SM SKC
     FM070100 28010KT P6SM SKC
METAR KCYS 062053Z 29013G22KT 10SM CLR 09/M09 A3023 RMK AO2 SLP221
       T00891089 58012
METAR KCYS 061953Z 28012G19KT 10SM CLR 08/M10 A3025 RMK AO2 SLP228
       T00831100
METAR KCYS 061853Z 27013G22KT 10SM CLR 08/M09 A3027 RMK AO2 SLP246
       T00781089

Riverton (KRIW) 03/06/15 21:30 UTC
Radar VAD winds      Height      Dir/Spd(kt)
                   6600 FT MSL...199/005
                   5900 FT MSL...173/007

Cheyenne (KCYS) 03/06/15 21:31 UTC
Radar VAD winds      Height      Dir/Spd(kt)
                   9000 FT MSL...288/023
                   8000 FT MSL...276/020

Riverton Aviation Discussion
Issued at 2054 UTC Friday, March  6, 2015

.AVIATION.../00Z ISSUANCE/
VFR CONDITIONS TO PREVAIL THROUGH 00Z SUNDAY. AREAS OF LLWS WILL
RETURN TONIGHT OVER THE WIND RIVER BASIN NEAR KRIW. OTHERWISE...GUSTY
WINDS WILL DECREASE AFTER 01Z THIS EVENING FROM KBPI/KPNA TO KRKS
TO KCPR. WINDS ARE NOT EXPECTED TO BE AS GUSTY SATURDAY...EXCEPT
NEAR KCPR.

Cheyenne Aviation Discussion
Issued at 2100 UTC Friday, March  6, 2015

.AVIATION...(FOR THE 00Z TAFS THROUGH 00Z SATURDAY EVENING)
ISSUED AT 200 PM MST FRI MAR 6 2015
VFR CONDITIONS WILL PERSIST OVER ALL TERMINALS THROUGH THE PERIOD
WITH JUST SOME PASSING HIGH CLOUDS IN NWLY FLOW ALOFT FROM TIME TO
TIME.


* * * * * Nebraska * * * * *

METAR KIBM 062135Z AUTO 29020G27KT 10SM CLR 11/M09 A3020 RMK AO2
       T01141088
METAR KIBM 062115Z AUTO 30018G23KT 10SM CLR 12/M08 A3020 RMK AO2
       T01201080
METAR KIBM 062055Z AUTO 30012G21KT 10SM CLR 12/M09 A3020 RMK AO2
       T01161088

KSNY 061720Z 0618/0718 30013G20KT P6SM SKC
     FM070000 30010KT P6SM SKC
METAR KSNY 062053Z AUTO 32014G20KT 10SM CLR 13/M09 A3020 RMK AO2 SLP228
       T01331089 58015
METAR KSNY 061953Z AUTO 30012G19KT 10SM CLR 14/M09 A3023 RMK AO2 SLP235
       T01391089
METAR KSNY 061853Z AUTO 30012G18KT 10SM CLR 13/M09 A3025 RMK AO2 SLP245
       T01281094

METAR KOGA 062135Z AUTO 31015G21KT 10SM CLR 16/M09 A3016 RMK AO2
       T01601088
METAR KOGA 062115Z AUTO 27010G16KT 10SM CLR 16/M09 A3016 RMK AO2
       T01641086
METAR KOGA 062055Z AUTO 31008G20KT 10SM CLR 16/M08 A3016 RMK AO2
       T01601085

METAR KIML 062053Z AUTO 27012KT 10SM 16/M11 A3018 RMK AO2 SLP231
       T01561106 $
METAR KIML 061953Z AUTO 29009G16KT 10SM 16/M10 A3021 RMK AO2 SLP239
       T01561100 $
METAR KIML 061853Z AUTO 32011G18KT 10SM 14/M10 A3024 RMK AO2 SLP250
       T01441100 $

KMCK 061728Z 0618/0718 29012KT P6SM SKC
      TEMPO 0620/0622 28012G20KT
METAR KMCK 062053Z AUTO 29014G18KT 10SM CLR 18/M09 A3017 RMK AO2 SLP221
       T01831094 58028
METAR KMCK 061953Z AUTO 27013G17KT 10SM CLR 17/M08 A3021 RMK AO2 SLP236
       T01721083
METAR KMCK 061853Z AUTO 28009KT 10SM CLR 16/M07 A3024 RMK AO2 SLP246
       T01561072

North Platte (KLNX) 03/06/15 21:30 UTC
Radar VAD winds      Height      Dir/Spd(kt)
                   6000 FT MSL...297/023
                   5000 FT MSL...297/022
                   4100 FT MSL...285/009
                   4000 FT MSL...297/021
                   4000 FT MSL...296/020
                   3400 FT MSL...309/022

North Platte Aviation Discussion
Issued at 2018 UTC Friday, March  6, 2015

.AVIATION...(FOR THE 18Z TAFS THROUGH 18Z SATURDAY AFTERNOON)
ISSUED AT 1122 AM CST FRI MAR 6 2015
VFR ANTICIPATED ACROSS ALL WESTERN AND NORTH CENTRAL NEBRASKA
TERMINALS THROUGH THE 18Z TAF CYCLE. WESTERLY WINDS WILL BE GUSTY
THIS AFTERNOON AS MIXING DRAWS DOWN HIGHER MOMENTUM FROM
ALOFT...BUT PEAK GUST POTENTIAL SHOULD REMAIN AT 20KTS OR LESS.
THESE GUSTS WILL SUBSIDE WITH THE SETTING SUN. OTHERWISE WILL NEED
TO MONITOR WIND SHEAR POTENTIAL ACROSS NORTH CENTRAL NEBRASKA
OVERNIGHT...GUIDANCE IS POINTING TO A 30KT INCREASE IN 0-1 KM BULK
SHEAR AT KVTN...KANW...AND POSSIBLY KTIF NEAR DAWN.


* * * * * Kansas * * * * *

KGLD 062101Z 0621/0718 29013KT P6SM SKC
      TEMPO 0621/0623 27012G20KT
     FM071200 32010KT P6SM SKC
METAR KGLD 062053Z AUTO 28013G21KT 10SM CLR 16/M10 A3022 RMK AO2 SLP236
       T01561100 58023
METAR KGLD 061953Z AUTO 28012G21KT 10SM CLR 15/M09 A3025 RMK AO2 SLP247
       T01501094

KGCK 061720Z 0618/0718 26008KT P6SM SKC
METAR KGCK 062054Z 21004KT 10SM CLR 15/M09 A3024 RMK AO2 SLP247
       T01501094 58024
METAR KGCK 061954Z 24007KT 10SM CLR 14/M10 A3028 RMK AO2 SLP257
       T01441100
METAR KGCK 061854Z 33005KT 10SM CLR 14/M09 A3030 RMK AO2 SLP268
       T01391089

METAR KLBL 062135Z AUTO 15005KT 10SM CLR 16/M07 A3028 RMK AO1
METAR KLBL 062115Z AUTO 14005KT 10SM CLR 16/M06 A3028 RMK AO1
METAR KLBL 062055Z AUTO 18003KT 10SM CLR 15/M05 A3029 RMK AO1 57027

METAR KEHA 062128Z AUTO 14005KT 16/M07 RMK AO1 PK WND 11 000
       T01611066
METAR KEHA 062108Z AUTO 19004KT 16/M07 RMK AO1 PK WND 09 000
T01611072
METAR KEHA 062048Z AUTO 13003KT 16/M07 RMK AO1 PK WND 11 000
       T01611072

Goodland (KGLD) 03/06/15 21:34 UTC
Radar VAD winds      Height      Dir/Spd(kt)
                   7000 FT MSL...276/015
                   6500 FT MSL...273/017
                   6000 FT MSL...271/018
                   5000 FT MSL...267/016
                   4700 FT MSL...263/011
                   4600 FT MSL...269/016
                   4000 FT MSL...262/014
                   4000 FT MSL...266/014

Dodge City (KDDC) 03/06/15 21:26 UTC
Radar VAD winds      Height      Dir/Spd(kt)
                   8000 FT MSL...297/004
                   7100 FT MSL...358/003
                   7000 FT MSL...066/005
                   5400 FT MSL...243/002
                   5000 FT MSL...279/005
                   4000 FT MSL...290/004
                   3700 FT MSL...191/003
                   3600 FT MSL...286/006

Goodland Aviation Discussion
Issued at 2053 UTC Friday, March  6, 2015

.AVIATION...(FOR THE 18Z TAFS THROUGH 18Z SATURDAY AFTERNOON)
ISSUED AT 1029 AM MST FRI MAR 6 2015
VFR CONDITIONS EXPECTED THROUGH THE TAF PERIOD WITH LITTLE CHANGE
IN THE DRY AND CALM WEATHER. AN OCCASIONAL GUST CAN BE EXPECTED AT
KMCK THIS AFTERNOON AND A LIGHT WIND SHIFT AT KGLD LATER IN THE
PERIOD.

Dodge City Aviation Discussion
Issued at 2004 UTC Friday, March  6, 2015

.AVIATION...(FOR THE 18Z TAFS THROUGH 18Z SATURDAY AFTERNOON)
ISSUED AT 1111 AM CST FRI MAR 6 2015
VFR CONDITIONS CAN BE EXPECTED OVER THE NEXT 24 HOURS GIVEN WHAT
MOISTURE THAT IS FORECAST TO CROSS WESTERN KANSAS WILL BE AT OR
ABOVE THE 600MB LEVEL. A SOUTHWEST TO WEST WIND AT LESS THAN 10
KNOTS WILL VEER TO THE NORTHWEST EARLY SATURDAY MORNING AS A WEAK
COLD FRONT MOVES INTO WESTERN KANSAS. 


* * * * * Texas/Oklahoma * * * * *

KGUY 061720Z 0618/0718 20007KT P6SM SKC
     FM070800 32007KT P6SM FEW250=
METAR KGUY 062053Z AUTO 16005KT 10SM CLR 16/M04 A3026 RMK AO2 SLP243
       T01561039 58025
METAR KGUY 061953Z AUTO 10005KT 10SM CLR 15/M04 A3029 RMK AO2 SLP253
       T01501044

KDHT 061720Z 0618/0718 20008KT P6SM SKC
     FM070800 33007KT P6SM FEW250
METAR KDHT 062053Z AUTO VRB05KT 10SM CLR 16/M07 A3027 RMK AO2 SLP244
       T01611067 58025
METAR KDHT 061953Z AUTO 00000KT 10SM CLR 15/M03 A3031 RMK AO2 SLP258
       T01501033

Amarillo (KAMA) 03/06/15 21:30 UTC
Radar VAD winds      Height      Dir/Spd(kt)
                  12000 FT MSL...309/005
                  11600 FT MSL...325/001
                  11000 FT MSL...021/003
                  10000 FT MSL...139/001
                   9900 FT MSL...174/001
                   9000 FT MSL...256/004
                   8200 FT MSL...237/010
                   8000 FT MSL...255/007
                   7000 FT MSL...235/010
                   6500 FT MSL...230/010
                   6000 FT MSL...227/009
                   5000 FT MSL...214/009
                   4700 FT MSL...211/008
                   4600 FT MSL...211/011
                   4000 FT MSL...227/010
                   4000 FT MSL...237/008


* * * * * New Mexico * * * * *

KFMN 061728Z 0618/0718 VRB05KT P6SM SKC
     FM062100 29008KT P6SM SKC
     FM070200 VRB04KT P6SM SKC
     FM070800 08007KT P6SM SKC
METAR KFMN 062053Z VRB03KT 10SM CLR 10/M09 A3033 RMK AO2 SLP279
       T01001089 58024
METAR KFMN 061953Z VRB03KT 10SM CLR 09/M08 A3036 RMK AO2 SLP293
       T00891083

METAR KSKX 062135Z AUTO 00000KT 10SM CLR 09/M12 A3033 RMK AO1
METAR KSKX 062115Z AUTO 33003KT 10SM CLR 10/M11 A3033 RMK AO1
METAR KSKX 062055Z AUTO 00000KT 10SM CLR 09/M12 A3034 RMK AO1 57027

KLVS 061728Z 0618/0718 18012KT P6SM SKC
     FM070300 VRB05KT P6SM SKC
METAR KLVS 062053Z AUTO 19013G21KT 10SM CLR 12/M07 A3028 RMK AO2 SLP217
       T01221072 58020
METAR KLVS 061953Z AUTO 19014KT 10SM CLR 12/M09 A3031 RMK AO2 SLP237
       T01171094

METAR KRTN 062053Z AUTO 23010G17KT 10SM CLR 11/M07 A3027 RMK AO2 SLP241
       T01111067 58022
METAR KRTN 061953Z AUTO 22009KT 10SM CLR 11/M08 A3030 RMK AO2 SLP252
       T01061083

METAR KCAO 062055Z AUTO 21010KT 10SM CLR 14/M08 A3026 RMK AO2 SLP231
       T01441078 58022
METAR KCAO 061955Z AUTO 20004KT 10SM CLR 13/M08 A3029 RMK AO2 SLP246
       T01331078
METAR KCAO 061855Z AUTO VRB04KT 10SM CLR 12/M07 A3032 RMK AO2 SLP262
       T01221067

Albuquerque (KABX) 03/06/15 21:27 UTC
Radar VAD winds      Height      Dir/Spd(kt)
                  15000 FT MSL...287/003
                  11000 FT MSL...078/004
                   9000 FT MSL...218/006
                   8700 FT MSL...220/013
                   8000 FT MSL...200/002
                   7000 FT MSL...077/006
                   6900 FT MSL...149/001

Albuquerque Aviation Discussion
Issued at 1738 UTC Friday, March  6, 2015

.AVIATION...
18Z TAF CYCLE
LOW CIG/VIS RESTRICTIONS COMING TO AN END ACROSS THE SE PLAINS AND
AT ROW BASED ON VISIBLE SATELLITE TRENDS.  MODELS ARE BULLISH FOR SOME
HIGH CLOUDS STREAMING OVER SOUTHERN PORTIONS OF THE FORECAST AREA
LATER TONIGHT. THE COMBINATION OF THE HIGH CLOUDS AND AN EARLIER
END TO THE RESTRICTIONS TODAY SHOULD MITIGATE CONCERN FOR LOW
CLOUDS TONIGHT. ALTHOUGH THE MET GUIDANCE STILL SHOWS SOME FOR ROW
LATER TONIGHT. DECIDED TO GO WITH THE DRIER TREND WITH NO RESTRICTIONS.
THEREFORE...VFR CONDITIONS EXPECTED THE NEXT 24 HRS ALL TERMINAL
SITES.
50

* * * * * Winds and Temperatures Aloft Forecasts * * * * *

DATA BASED ON 061200Z    
VALID 061800Z   FOR USE 1700-2100Z. TEMPS NEG ABV 24000
FT  3000    6000   9000    12000   18000   24000  30000  34000  39000
SLC      9900    3411-02 3515-05 3424-18 3325-30 331846 321955 312464
BCE                      0210-02 3619-18 0114-31 031046 030755 041262
LND              3319-02 3114-08 3235-19 3243-30 324847 324957 315264
RKS              3023    3227-07 3329-19 3333-30 323346 323556 304064
GJT              9900-02 3509-05 3422-18 3320-30 341546 321455 301964
FMN              9900+00 9900-03 3411-18 3610-30 990046 110556 250960
ABQ              9900+02 9900-02 9900-19 1206-31 180746 252353 253556
MBW              2926    3025-08 3236-20 3248-31 335547 336356 304363
DEN              3408+00 3212-07 3231-19 3241-30 314546 313856 294863
PUB              3009+02 3015-05 3026-19 3128-30 313346 313255 283463
ALS                      3009-04 3118-18 3117-30 311545 301155 282161
TCC      2008    2009+03 2405-04 2815-18 2710-30 270645 262853 254956
BFF      3017    3015-04 3026-09 3138-22 3251-33 326249 325956 305859
GLD      2810    2718-02 2928-09 3136-21 3146-31 315847 315655 286161
GCK      2506+04 3115-02 3126-08 2938-20 3043-31 315346 314855 285460
GAG      2409+05 3111-01 3119-06 2937-19 2935-30 313746 293755 276155
AMA      2210    2506+01 3010-04 2824-18 2820-30 291545 273253 265956
---------------------------------------------------------------------

DATA BASED ON 061200Z    
VALID 070000Z   FOR USE 2100-0600Z. TEMPS NEG ABV 24000
FT  3000    6000   9000    12000   18000   24000  30000  34000  39000
SLC      9900    3609+00 3618-04 3623-18 3520-30 331946 312155 313063
BCE                      0208-02 0215-18 0215-30 031046 021255 350760
LND              3214-01 3219-07 3339-18 3339-31 324447 304256 315265
RKS              3019    3323-06 3428-18 3330-30 313646 313956 314264
GJT              0506+00 3608-05 3514-18 3415-30 311346 301655 312362
FMN              9900+01 9900-02 3506-17 9900-30 990046 990055 252358
ABQ              9900+03 2008-02 1605-18 1806-30 253045 253453 243956
MBW              2924    3124-08 3233-19 3137-31 314646 304756 315063
DEN              3020+01 3111-07 3130-17 3235-29 303646 303955 304563
PUB              3009+02 2917-05 3119-17 3120-29 302346 292855 293562
ALS                      2407-03 3112-17 3111-29 291345 281355 262660
TCC      1907    2408+04 2510-02 2613-18 2408-30 263844 264453 255257
BFF      3128    3225-02 3230-08 3139-20 3251-32 316047 326457 315663
GLD      2913    2922+00 3026-07 3134-19 3142-30 314747 316155 306362
GCK      2419+07 2623+00 2925-06 3032-18 3041-30 295146 305155 285560
GAG      2606+07 2812+01 2820-05 2935-18 2935-30 283645 273955 276457
AMA      2309    2608+03 2614-03 2722-18 2817-29 272845 274854 266057
---------------------------------------------------------------------

DATA BASED ON 061200Z    
VALID 071200Z   FOR USE 0600-1700Z. TEMPS NEG ABV 24000
FT  3000    6000   9000    12000   18000   24000  30000  34000  39000
SLC      9900    0712+02 0212-04 3217-18 3421-30 331547 322056 312662
BCE                      0812-03 0614-18 0515-31 052046 051654 310657
LND              2908-01 3317-07 3232-19 3035-31 314248 304457 304362
RKS              9900    3511-06 3130-18 3126-30 322847 303257 303763
GJT              0411-01 0211-04 0108-18 3410-31 351246 341055 281861
FMN              1505+01 1705-03 9900-18 1008-31 081646 101054 232455
ABQ              1407+02 1608-03 2317-19 2121-31 235144 237150 244855
MBW              3016    3228-08 3036-18 3027-31 323948 304157 304663
DEN              9900-02 3008-07 3119-18 2918-31 302847 292956 283862
PUB              1905-01 2609-06 2911-18 2815-30 291646 281855 263660
ALS                      9900-04 2606-18 9900-30 990046 220754 243457
TCC      9900    2006+03 1908-03 2419-17 2430-29 257043 258551 256659
BFF      3225    3125-03 3223-09 3036-18 3038-33 314448 304757 295463
GLD      3518    3217-02 3022-07 3025-18 2929-31 293847 283856 275261
GCK      3515+05 3114+00 2920-06 2929-18 2831-30 273446 273955 265860
GAG      2810+06 2616+02 2717-04 2726-18 2728-30 265445 277653 267660
AMA      3107    2307+03 2309-03 2521-17 2635-29 266743 268352 267560
---------------------------------------------------------------------

This product is updated automatically at approximately 10, 30 and 50
minutes after each hour, 24 hours per day, 7 days per week.  It may
become unavailable at times due to system outages without prior notice.
Users are advised to check the time at the top of the product to ensure
that it is current.  Furthermore, content and format of the product are
subject to change without prior notice.

Comments and suggestions are welcome and should be directed to one of
the addresses or phone numbers shown at the bottom of this page.  In
order to expedite a response to comments or suggestions, be sure to
mention your interest in the hot-air balloon forecast.

USA.gov is the U.S. government's official web portal to all federal, state and local government web resources and services.